Terminal Aerodrome Forecast
Issued by NWS Sioux Falls, SD

Home | Current Version | Previous Version | Text Only | Print | Product List | Glossary Off
Versions: 1 2 3 4 5 6 7 8 9 10 11 12 13

235
FTUS43 KFSD 042329
TAFHON
TAF
KHON 042329Z 0500/0524 VRB03KT P6SM SKC
     FM050600 15007KT P6SM BKN120
     FM051200 17008KT P6SM OVC050
     FM051500 20008KT 5SM -SN OVC030
     FM051900 32011KT P6SM OVC100=

USA.gov is the U.S. government's official web portal to all federal, state and local government web resources and services.